createdAt,value
2022-11-26T00:03:52.578Z,1.73
2022-11-26T00:09:20.987Z,1.40
2022-11-26T00:14:42.985Z,1.67
2022-11-26T00:20:05.305Z,1.20
2022-11-26T00:25:33.256Z,1.50
2022-11-26T00:30:57.963Z,1.83
2022-11-26T00:36:27.527Z,1.80
2022-11-26T00:41:51.197Z,1.45
2022-11-26T00:47:12.943Z,1.27
2022-11-26T00:52:35.021Z,1.52
2022-11-26T00:57:57.743Z,1.40
2022-11-26T01:03:19.780Z,1.33
2022-11-26T01:08:41.630Z,1.15
2022-11-26T01:14:03.356Z,1.30
2022-11-26T01:19:25.106Z,1.00
2022-11-26T01:24:47.415Z,1.15
2022-11-26T01:30:18.982Z,1.10
2022-11-26T01:35:40.669Z,1.05
2022-11-26T01:41:15.805Z,1.00
2022-11-26T01:46:39.044Z,1.10
2022-11-26T01:52:21.380Z,0.90
2022-11-26T01:57:44.381Z,0.93
2022-11-26T02:03:07.162Z,1.00
2022-11-26T02:08:31.653Z,1.10
2022-11-26T02:13:56.914Z,0.70
2022-11-26T02:19:49.482Z,0.85
2022-11-26T02:25:29.961Z,0.93
2022-11-26T02:31:18.237Z,0.80
2022-11-26T02:36:50.177Z,1.00
2022-11-26T02:42:30.423Z,0.98
2022-11-26T02:47:55.910Z,0.80
2022-11-26T02:53:20.927Z,0.80
2022-11-26T02:58:43.480Z,0.70
2022-11-26T03:04:15.661Z,0.60
2022-11-26T03:09:53.971Z,0.90
2022-11-26T03:15:15.680Z,0.80
2022-11-26T03:20:37.318Z,0.95
2022-11-26T03:25:59.151Z,0.80
2022-11-26T03:31:20.908Z,0.70
2022-11-26T03:36:43.346Z,0.70
2022-11-26T03:42:05.410Z,0.60
2022-11-26T03:47:27.582Z,0.80
2022-11-26T03:52:49.260Z,0.73
2022-11-26T03:58:10.987Z,0.63
2022-11-26T04:03:32.758Z,0.55
2022-11-26T04:08:54.654Z,0.80
2022-11-26T04:14:16.443Z,0.65
2022-11-26T04:19:38.177Z,0.60
2022-11-26T04:24:59.856Z,0.60
2022-11-26T04:30:21.558Z,0.60
2022-11-26T04:35:43.789Z,0.60
2022-11-26T04:41:05.656Z,0.60
2022-11-26T04:46:27.296Z,0.57
2022-11-26T04:51:48.948Z,0.38
2022-11-26T04:57:10.632Z,0.50
2022-11-26T05:02:32.315Z,0.60
2022-11-26T05:07:54.142Z,0.50
2022-11-26T05:13:15.933Z,0.57
2022-11-26T05:18:37.634Z,0.70
2022-11-26T05:23:59.301Z,0.43
2022-11-26T05:29:20.947Z,0.35
2022-11-26T05:34:42.784Z,0.88
2022-11-26T05:40:05.328Z,0.80
2022-11-26T05:45:27.102Z,0.38
2022-11-26T05:50:53.120Z,0.40
2022-11-26T05:56:16.302Z,0.63
2022-11-26T06:01:38.127Z,0.55
2022-11-26T06:06:59.791Z,0.52
2022-11-26T06:12:21.533Z,0.43
2022-11-26T06:17:43.320Z,0.50
2022-11-26T06:23:05.400Z,0.50
2022-11-26T06:28:27.162Z,0.50
2022-11-26T06:33:52.791Z,0.43
2022-11-26T06:44:36.927Z,0.30
2022-11-26T06:49:58.812Z,0.50
2022-11-26T06:55:21.335Z,0.40
2022-11-26T07:00:43.034Z,0.20
2022-11-26T07:06:04.942Z,0.40
2022-11-26T07:11:27.079Z,0.60
2022-11-26T07:16:49.030Z,0.40
2022-11-26T07:22:10.667Z,0.38
2022-11-26T07:27:32.354Z,0.60
2022-11-26T07:32:54.020Z,0.43
2022-11-26T07:38:15.688Z,0.30
2022-11-26T07:43:39.320Z,0.73
2022-11-26T07:49:01.014Z,0.68
2022-11-26T07:54:22.698Z,0.52
2022-11-26T07:59:44.356Z,0.70
2022-11-26T08:05:06.646Z,1.85
2022-11-26T08:10:28.325Z,1.48
2022-11-26T08:15:50.001Z,0.85
2022-11-26T08:21:11.766Z,1.10
2022-11-26T08:26:38.425Z,1.00
2022-11-26T08:32:04.555Z,1.20
2022-11-26T08:37:26.378Z,1.10
2022-11-26T08:42:48.132Z,1.20
2022-11-26T08:48:09.832Z,0.80
2022-11-26T08:53:33.522Z,1.13
2022-11-26T08:58:55.269Z,0.80
2022-11-26T09:04:17.070Z,0.75
2022-11-26T09:09:38.992Z,0.93
2022-11-26T09:15:00.692Z,1.00
2022-11-26T09:20:22.450Z,1.48
2022-11-26T09:25:44.119Z,1.40
2022-11-26T09:31:06.293Z,1.58
2022-11-26T09:36:28.138Z,1.60
2022-11-26T09:42:03.292Z,1.40
2022-11-26T09:47:38.400Z,1.20
2022-11-26T09:53:09.196Z,1.17
2022-11-26T09:58:38.960Z,1.48
2022-11-26T10:04:01.001Z,1.60
2022-11-26T10:09:34.748Z,2.38
2022-11-26T10:15:35.403Z,2.08
2022-11-26T10:21:18.233Z,2.35
2022-11-26T10:26:49.940Z,2.45
2022-11-26T10:32:16.250Z,2.13
2022-11-26T10:37:37.928Z,2.30
2022-11-26T10:43:08.660Z,2.47
2022-11-26T10:48:32.944Z,2.30
2022-11-26T10:54:02.353Z,2.60
2022-11-26T10:59:28.887Z,2.20
2022-11-26T11:04:53.834Z,2.35
2022-11-26T11:10:19.259Z,2.90
2022-11-26T11:15:41.812Z,2.58
2022-11-26T11:21:05.199Z,2.47
2022-11-26T11:26:28.496Z,2.15
2022-11-26T11:31:50.435Z,1.90
2022-11-26T11:37:17.223Z,2.30
2022-11-26T11:42:40.776Z,1.98
2022-11-26T11:48:14.671Z,1.90
2022-11-26T11:54:03.379Z,1.70
2022-11-26T11:59:47.969Z,2.53
2022-11-26T12:05:28.230Z,2.33
2022-11-26T12:11:17.631Z,1.85
2022-11-26T12:16:43.803Z,2.13
2022-11-26T12:22:18.790Z,2.17
2022-11-26T12:27:46.939Z,2.40
2022-11-26T12:33:41.498Z,2.00
2022-11-26T12:39:18.409Z,2.70
2022-11-26T12:44:44.036Z,2.08
2022-11-26T12:56:28.349Z,1.85
2022-11-26T13:01:50.892Z,2.05
2022-11-26T13:07:18.391Z,2.65
2022-11-26T13:13:06.598Z,2.17
2022-11-26T13:18:34.740Z,2.58
2022-11-26T13:24:40.937Z,2.33
2022-11-26T13:30:24.195Z,2.25
2022-11-26T13:36:04.010Z,2.40
2022-11-26T13:41:58.653Z,2.85
2022-11-26T13:47:23.614Z,2.35
2022-11-26T13:53:00.052Z,2.40
2022-11-26T13:58:31.102Z,1.70
2022-11-26T14:03:53.035Z,2.50
2022-11-26T14:09:55.024Z,2.72
2022-11-26T14:15:51.679Z,1.90
2022-11-26T14:21:13.865Z,2.20
2022-11-26T14:26:40.001Z,2.10
2022-11-26T14:32:01.828Z,2.00
2022-11-26T14:37:27.147Z,2.08
2022-11-26T14:42:48.763Z,2.28
2022-11-26T14:48:47.247Z,1.85
2022-11-26T14:54:17.423Z,1.90
2022-11-26T15:00:05.953Z,1.83
2022-11-26T15:05:33.291Z,2.10
2022-11-26T15:11:00.937Z,2.08
2022-11-26T15:16:43.117Z,1.80
2022-11-26T15:22:34.335Z,2.45
2022-11-26T15:27:59.244Z,1.90
2022-11-26T15:33:21.575Z,1.50
2022-11-26T15:39:06.557Z,1.70
2022-11-26T15:44:30.061Z,1.52
2022-11-26T15:49:56.188Z,1.52
2022-11-26T15:55:26.510Z,2.00
2022-11-26T16:00:54.182Z,1.95
2022-11-26T16:06:27.090Z,1.73
2022-11-26T16:11:59.973Z,1.55
2022-11-26T16:17:21.847Z,1.70
2022-11-26T16:22:46.619Z,1.95
2022-11-26T16:28:11.050Z,1.70
2022-11-26T16:33:32.787Z,2.50
2022-11-26T16:38:54.568Z,2.13
2022-11-26T16:44:16.318Z,2.20
2022-11-26T16:49:38.013Z,2.25
2022-11-26T16:54:59.755Z,2.40
2022-11-26T17:00:25.001Z,3.50
2022-11-26T17:05:46.698Z,3.35
2022-11-26T17:11:12.186Z,3.70
2022-11-26T17:21:55.666Z,3.67
2022-11-26T17:27:20.189Z,3.67
2022-11-26T17:32:42.025Z,4.90
2022-11-26T17:38:10.645Z,4.57
2022-11-26T17:43:32.505Z,4.95
2022-11-26T17:48:59.999Z,4.50
2022-11-26T17:54:21.928Z,4.00
2022-11-26T17:59:44.321Z,5.03
2022-11-26T18:05:06.299Z,4.85
2022-11-26T18:10:28.040Z,5.10
2022-11-26T18:15:49.760Z,5.90
2022-11-26T18:21:12.391Z,4.38
2022-11-26T18:26:37.718Z,4.85
2022-11-26T18:31:59.419Z,5.00
2022-11-26T18:37:21.112Z,4.47
2022-11-26T18:42:43.146Z,4.82
2022-11-26T18:48:05.023Z,4.97
2022-11-26T18:53:27.578Z,4.90
2022-11-26T18:58:50.472Z,4.65
2022-11-26T19:04:12.948Z,4.68
2022-11-26T19:09:34.725Z,4.70
2022-11-26T19:14:56.417Z,4.75
2022-11-26T19:20:18.158Z,4.57
2022-11-26T19:25:39.803Z,4.25
2022-11-26T19:31:06.692Z,3.80
2022-11-26T19:36:30.027Z,4.38
2022-11-26T19:41:51.893Z,4.05
2022-11-26T19:47:13.570Z,4.90
2022-11-26T19:52:35.241Z,4.38
2022-11-26T19:57:56.949Z,4.30
2022-11-26T20:03:18.802Z,4.10
2022-11-26T20:08:40.699Z,3.92
2022-11-26T20:14:03.567Z,3.90
2022-11-26T20:19:25.241Z,3.00
2022-11-26T20:24:46.881Z,3.33
2022-11-26T20:30:09.399Z,3.25
2022-11-26T20:35:31.094Z,2.85
2022-11-26T20:40:52.741Z,2.35
2022-11-26T20:46:14.953Z,3.20
2022-11-26T20:51:39.610Z,2.58
2022-11-26T20:57:01.522Z,3.43
2022-11-26T21:02:23.257Z,3.15
2022-11-26T21:07:45.015Z,2.92
2022-11-26T21:13:07.783Z,2.80
2022-11-26T21:18:29.730Z,3.03
2022-11-26T21:23:51.597Z,2.70
2022-11-26T21:29:13.397Z,2.58
2022-11-26T21:34:35.088Z,1.92
2022-11-26T21:39:56.891Z,3.30
2022-11-26T21:45:18.876Z,2.05
2022-11-26T21:50:40.652Z,2.33
2022-11-26T21:56:20.595Z,2.03
2022-11-26T22:01:43.086Z,1.77
2022-11-26T22:07:04.940Z,2.03
2022-11-26T22:12:26.938Z,2.15
2022-11-26T22:17:48.556Z,1.90
2022-11-26T22:23:10.265Z,1.58
2022-11-26T22:28:32.004Z,1.40
2022-11-26T22:33:56.027Z,1.38
2022-11-26T22:39:18.814Z,1.70
2022-11-26T22:44:40.497Z,1.35
2022-11-26T22:50:02.141Z,1.40
2022-11-26T22:55:23.881Z,1.23
2022-11-26T23:00:51.053Z,1.40
2022-11-26T23:06:15.383Z,1.02
2022-11-26T23:11:39.776Z,1.80
2022-11-26T23:17:01.418Z,1.10
2022-11-26T23:22:23.083Z,1.08
2022-11-26T23:27:44.945Z,1.38
2022-11-26T23:33:06.722Z,1.17
2022-11-26T23:38:28.794Z,1.08
2022-11-26T23:43:50.490Z,0.90
2022-11-26T23:49:12.881Z,0.90
2022-11-26T23:54:34.913Z,0.90
2022-11-26T23:59:56.716Z,0.85
